sensor_id;sensor_type;location;lat;lon;timestamp;P1;durP1;ratioP1;P2;durP2;ratioP2
49826;SDS011;35715;51.570;6.036;2023-11-21T00:01:50;9.30;;;7.90;;
49826;SDS011;35715;51.570;6.036;2023-11-21T00:04:34;12.18;;;10.50;;
49826;SDS011;35715;51.570;6.036;2023-11-21T00:06:59;12.35;;;8.32;;
49826;SDS011;35715;51.570;6.036;2023-11-21T00:09:24;8.38;;;7.13;;
49826;SDS011;35715;51.570;6.036;2023-11-21T00:11:49;11.73;;;10.35;;
49826;SDS011;35715;51.570;6.036;2023-11-21T00:14:17;13.23;;;8.93;;
49826;SDS011;35715;51.570;6.036;2023-11-21T00:16:43;11.40;;;9.15;;
49826;SDS011;35715;51.570;6.036;2023-11-21T00:19:08;11.35;;;8.77;;
49826;SDS011;35715;51.570;6.036;2023-11-21T00:21:33;13.18;;;9.48;;
49826;SDS011;35715;51.570;6.036;2023-11-21T00:23:59;10.25;;;9.25;;
49826;SDS011;35715;51.570;6.036;2023-11-21T00:26:24;18.73;;;11.50;;
49826;SDS011;35715;51.570;6.036;2023-11-21T00:28:50;21.30;;;10.15;;
49826;SDS011;35715;51.570;6.036;2023-11-21T00:31:15;16.92;;;11.23;;
49826;SDS011;35715;51.570;6.036;2023-11-21T00:33:41;13.32;;;9.55;;
49826;SDS011;35715;51.570;6.036;2023-11-21T00:36:06;18.63;;;9.98;;
49826;SDS011;35715;51.570;6.036;2023-11-21T00:38:34;17.63;;;10.38;;
49826;SDS011;35715;51.570;6.036;2023-11-21T00:41:00;17.02;;;11.52;;
49826;SDS011;35715;51.570;6.036;2023-11-21T00:43:26;19.20;;;11.23;;
49826;SDS011;35715;51.570;6.036;2023-11-21T00:45:54;17.60;;;11.55;;
49826;SDS011;35715;51.570;6.036;2023-11-21T00:48:19;19.95;;;12.90;;
49826;SDS011;35715;51.570;6.036;2023-11-21T00:50:45;16.70;;;12.57;;
49826;SDS011;35715;51.570;6.036;2023-11-21T00:53:10;14.50;;;11.98;;
49826;SDS011;35715;51.570;6.036;2023-11-21T00:55:36;15.32;;;11.27;;
49826;SDS011;35715;51.570;6.036;2023-11-21T00:58:01;15.95;;;12.13;;
49826;SDS011;35715;51.570;6.036;2023-11-21T01:00:29;17.27;;;11.50;;
49826;SDS011;35715;51.570;6.036;2023-11-21T01:02:54;22.10;;;13.70;;
49826;SDS011;35715;51.570;6.036;2023-11-21T01:05:20;20.30;;;12.52;;
49826;SDS011;35715;51.570;6.036;2023-11-21T01:07:45;18.75;;;13.95;;
49826;SDS011;35715;51.570;6.036;2023-11-21T01:10:10;18.55;;;13.82;;
49826;SDS011;35715;51.570;6.036;2023-11-21T01:12:36;21.55;;;13.73;;
49826;SDS011;35715;51.570;6.036;2023-11-21T01:15:03;19.15;;;13.93;;
49826;SDS011;35715;51.570;6.036;2023-11-21T01:17:32;20.25;;;12.90;;
49826;SDS011;35715;51.570;6.036;2023-11-21T01:19:59;19.65;;;13.55;;
49826;SDS011;35715;51.570;6.036;2023-11-21T01:22:25;19.70;;;14.18;;
49826;SDS011;35715;51.570;6.036;2023-11-21T01:24:51;20.00;;;12.77;;
49826;SDS011;35715;51.570;6.036;2023-11-21T01:27:17;20.50;;;14.32;;
49826;SDS011;35715;51.570;6.036;2023-11-21T01:29:43;21.08;;;13.32;;
49826;SDS011;35715;51.570;6.036;2023-11-21T01:32:09;29.42;;;14.57;;
49826;SDS011;35715;51.570;6.036;2023-11-21T01:34:35;24.50;;;16.35;;
49826;SDS011;35715;51.570;6.036;2023-11-21T01:37:00;22.58;;;13.88;;
49826;SDS011;35715;51.570;6.036;2023-11-21T01:39:30;24.33;;;14.52;;
49826;SDS011;35715;51.570;6.036;2023-11-21T01:41:56;21.27;;;13.80;;
49826;SDS011;35715;51.570;6.036;2023-11-21T01:44:26;25.98;;;16.33;;
49826;SDS011;35715;51.570;6.036;2023-11-21T01:46:51;21.88;;;14.32;;
49826;SDS011;35715;51.570;6.036;2023-11-21T01:49:17;21.42;;;14.90;;
49826;SDS011;35715;51.570;6.036;2023-11-21T01:51:48;23.58;;;14.82;;
49826;SDS011;35715;51.570;6.036;2023-11-21T01:54:17;24.55;;;15.98;;
49826;SDS011;35715;51.570;6.036;2023-11-21T01:56:46;18.58;;;14.65;;
49826;SDS011;35715;51.570;6.036;2023-11-21T01:59:13;23.38;;;16.63;;
49826;SDS011;35715;51.570;6.036;2023-11-21T02:01:42;22.42;;;17.02;;
49826;SDS011;35715;51.570;6.036;2023-11-21T02:04:08;34.17;;;16.45;;
49826;SDS011;35715;51.570;6.036;2023-11-21T02:06:34;26.98;;;15.52;;
49826;SDS011;35715;51.570;6.036;2023-11-21T02:09:00;27.05;;;18.30;;
49826;SDS011;35715;51.570;6.036;2023-11-21T02:11:25;24.00;;;16.85;;
49826;SDS011;35715;51.570;6.036;2023-11-21T02:13:52;26.50;;;18.65;;
49826;SDS011;35715;51.570;6.036;2023-11-21T02:16:19;29.88;;;16.90;;
49826;SDS011;35715;51.570;6.036;2023-11-21T02:18:45;30.00;;;19.55;;
49826;SDS011;35715;51.570;6.036;2023-11-21T02:21:14;36.95;;;19.52;;
49826;SDS011;35715;51.570;6.036;2023-11-21T02:23:39;38.00;;;16.70;;
49826;SDS011;35715;51.570;6.036;2023-11-21T02:26:09;34.05;;;20.50;;
49826;SDS011;35715;51.570;6.036;2023-11-21T02:28:35;31.25;;;19.48;;
49826;SDS011;35715;51.570;6.036;2023-11-21T02:31:00;28.80;;;18.13;;
49826;SDS011;35715;51.570;6.036;2023-11-21T02:33:27;39.88;;;21.17;;
49826;SDS011;35715;51.570;6.036;2023-11-21T02:35:53;29.88;;;18.60;;
49826;SDS011;35715;51.570;6.036;2023-11-21T02:38:19;31.50;;;17.52;;
49826;SDS011;35715;51.570;6.036;2023-11-21T02:40:45;38.03;;;21.48;;
49826;SDS011;35715;51.570;6.036;2023-11-21T02:43:11;27.58;;;19.52;;
49826;SDS011;35715;51.570;6.036;2023-11-21T02:45:36;37.35;;;20.88;;
49826;SDS011;35715;51.570;6.036;2023-11-21T02:48:02;47.40;;;19.60;;
49826;SDS011;35715;51.570;6.036;2023-11-21T02:50:27;56.13;;;25.10;;
49826;SDS011;35715;51.570;6.036;2023-11-21T02:52:53;38.72;;;22.17;;
49826;SDS011;35715;51.570;6.036;2023-11-21T02:55:18;42.38;;;22.13;;
49826;SDS011;35715;51.570;6.036;2023-11-21T02:57:44;61.10;;;20.63;;
49826;SDS011;35715;51.570;6.036;2023-11-21T03:00:09;40.70;;;21.20;;
49826;SDS011;35715;51.570;6.036;2023-11-21T03:02:37;41.90;;;20.20;;
49826;SDS011;35715;51.570;6.036;2023-11-21T03:05:04;54.42;;;19.88;;
49826;SDS011;35715;51.570;6.036;2023-11-21T03:07:34;42.20;;;20.60;;
49826;SDS011;35715;51.570;6.036;2023-11-21T03:09:59;50.40;;;19.38;;
49826;SDS011;35715;51.570;6.036;2023-11-21T03:12:24;50.60;;;20.63;;
49826;SDS011;35715;51.570;6.036;2023-11-21T03:14:50;36.42;;;19.67;;
49826;SDS011;35715;51.570;6.036;2023-11-21T03:17:16;47.28;;;20.27;;
49826;SDS011;35715;51.570;6.036;2023-11-21T03:19:41;38.65;;;18.90;;
49826;SDS011;35715;51.570;6.036;2023-11-21T03:22:07;40.03;;;18.42;;
49826;SDS011;35715;51.570;6.036;2023-11-21T03:24:36;35.30;;;18.58;;
49826;SDS011;35715;51.570;6.036;2023-11-21T03:27:02;39.83;;;20.38;;
49826;SDS011;35715;51.570;6.036;2023-11-21T03:29:27;47.10;;;18.45;;
49826;SDS011;35715;51.570;6.036;2023-11-21T03:31:53;64.07;;;20.23;;
49826;SDS011;35715;51.570;6.036;2023-11-21T03:34:25;40.20;;;20.27;;
49826;SDS011;35715;51.570;6.036;2023-11-21T03:36:51;48.15;;;19.08;;
49826;SDS011;35715;51.570;6.036;2023-11-21T03:39:17;53.25;;;18.25;;
49826;SDS011;35715;51.570;6.036;2023-11-21T03:41:42;59.45;;;19.30;;
49826;SDS011;35715;51.570;6.036;2023-11-21T03:44:08;39.47;;;19.08;;
49826;SDS011;35715;51.570;6.036;2023-11-21T03:46:33;45.15;;;20.40;;
49826;SDS011;35715;51.570;6.036;2023-11-21T03:48:59;46.42;;;19.73;;
49826;SDS011;35715;51.570;6.036;2023-11-21T03:51:24;37.95;;;18.85;;
49826;SDS011;35715;51.570;6.036;2023-11-21T03:53:49;33.38;;;19.15;;
49826;SDS011;35715;51.570;6.036;2023-11-21T03:56:15;46.25;;;21.23;;
49826;SDS011;35715;51.570;6.036;2023-11-21T03:58:43;56.78;;;18.90;;
49826;SDS011;35715;51.570;6.036;2023-11-21T04:01:08;63.95;;;20.73;;
49826;SDS011;35715;51.570;6.036;2023-11-21T04:03:36;35.40;;;18.08;;
49826;SDS011;35715;51.570;6.036;2023-11-21T04:06:02;50.30;;;20.20;;
49826;SDS011;35715;51.570;6.036;2023-11-21T04:08:27;71.88;;;22.45;;
49826;SDS011;35715;51.570;6.036;2023-11-21T04:10:52;27.00;;;17.90;;
49826;SDS011;35715;51.570;6.036;2023-11-21T04:13:18;32.90;;;19.23;;
49826;SDS011;35715;51.570;6.036;2023-11-21T04:15:44;41.45;;;21.63;;
49826;SDS011;35715;51.570;6.036;2023-11-21T04:18:09;50.25;;;21.05;;
49826;SDS011;35715;51.570;6.036;2023-11-21T04:20:35;36.35;;;19.88;;
49826;SDS011;35715;51.570;6.036;2023-11-21T04:23:00;43.35;;;21.50;;
49826;SDS011;35715;51.570;6.036;2023-11-21T04:25:26;46.65;;;20.33;;
49826;SDS011;35715;51.570;6.036;2023-11-21T04:27:52;53.03;;;20.65;;
49826;SDS011;35715;51.570;6.036;2023-11-21T04:30:18;48.30;;;20.13;;
49826;SDS011;35715;51.570;6.036;2023-11-21T04:32:43;32.58;;;20.38;;
49826;SDS011;35715;51.570;6.036;2023-11-21T04:35:08;28.48;;;17.33;;
49826;SDS011;35715;51.570;6.036;2023-11-21T04:37:34;63.78;;;22.67;;
49826;SDS011;35715;51.570;6.036;2023-11-21T04:39:59;30.88;;;20.35;;
49826;SDS011;35715;51.570;6.036;2023-11-21T04:42:32;37.05;;;19.15;;
49826;SDS011;35715;51.570;6.036;2023-11-21T04:45:04;36.33;;;18.35;;
49826;SDS011;35715;51.570;6.036;2023-11-21T04:47:33;86.57;;;20.17;;
49826;SDS011;35715;51.570;6.036;2023-11-21T04:50:02;38.75;;;20.45;;
49826;SDS011;35715;51.570;6.036;2023-11-21T04:52:30;47.97;;;19.15;;
49826;SDS011;35715;51.570;6.036;2023-11-21T04:54:57;41.97;;;18.95;;
49826;SDS011;35715;51.570;6.036;2023-11-21T04:57:23;35.92;;;20.40;;
49826;SDS011;35715;51.570;6.036;2023-11-21T04:59:49;37.00;;;22.58;;
49826;SDS011;35715;51.570;6.036;2023-11-21T05:02:15;42.25;;;20.63;;
49826;SDS011;35715;51.570;6.036;2023-11-21T05:04:40;38.60;;;21.60;;
49826;SDS011;35715;51.570;6.036;2023-11-21T05:07:07;34.35;;;18.80;;
49826;SDS011;35715;51.570;6.036;2023-11-21T05:09:33;38.60;;;19.63;;
49826;SDS011;35715;51.570;6.036;2023-11-21T05:11:59;53.55;;;19.35;;
49826;SDS011;35715;51.570;6.036;2023-11-21T05:14:25;33.22;;;19.58;;
49826;SDS011;35715;51.570;6.036;2023-11-21T05:16:50;36.63;;;20.73;;
49826;SDS011;35715;51.570;6.036;2023-11-21T05:19:16;34.20;;;16.88;;
49826;SDS011;35715;51.570;6.036;2023-11-21T05:21:42;29.63;;;18.60;;
49826;SDS011;35715;51.570;6.036;2023-11-21T05:24:11;43.83;;;16.65;;
49826;SDS011;35715;51.570;6.036;2023-11-21T05:26:36;34.83;;;19.55;;
49826;SDS011;35715;51.570;6.036;2023-11-21T05:29:02;30.08;;;18.38;;
49826;SDS011;35715;51.570;6.036;2023-11-21T05:31:27;47.40;;;18.92;;
49826;SDS011;35715;51.570;6.036;2023-11-21T05:33:52;27.10;;;19.85;;
49826;SDS011;35715;51.570;6.036;2023-11-21T05:36:27;21.90;;;17.02;;
49826;SDS011;35715;51.570;6.036;2023-11-21T05:38:53;23.80;;;18.52;;
49826;SDS011;35715;51.570;6.036;2023-11-21T05:41:18;28.02;;;16.63;;
49826;SDS011;35715;51.570;6.036;2023-11-21T05:43:43;31.08;;;17.42;;
49826;SDS011;35715;51.570;6.036;2023-11-21T05:46:09;19.77;;;14.95;;
49826;SDS011;35715;51.570;6.036;2023-11-21T05:48:34;19.30;;;16.05;;
49826;SDS011;35715;51.570;6.036;2023-11-21T05:51:02;24.33;;;15.25;;
49826;SDS011;35715;51.570;6.036;2023-11-21T05:53:29;22.45;;;15.90;;
49826;SDS011;35715;51.570;6.036;2023-11-21T05:55:55;25.85;;;16.83;;
49826;SDS011;35715;51.570;6.036;2023-11-21T05:58:20;29.45;;;16.67;;
49826;SDS011;35715;51.570;6.036;2023-11-21T06:00:48;23.30;;;16.35;;
49826;SDS011;35715;51.570;6.036;2023-11-21T06:03:14;22.05;;;15.32;;
49826;SDS011;35715;51.570;6.036;2023-11-21T06:05:39;20.60;;;15.32;;
49826;SDS011;35715;51.570;6.036;2023-11-21T06:08:04;19.20;;;15.48;;
49826;SDS011;35715;51.570;6.036;2023-11-21T06:10:31;17.80;;;15.75;;
49826;SDS011;35715;51.570;6.036;2023-11-21T06:12:57;21.13;;;15.88;;
49826;SDS011;35715;51.570;6.036;2023-11-21T06:15:23;22.13;;;16.75;;
49826;SDS011;35715;51.570;6.036;2023-11-21T06:17:48;25.40;;;17.30;;
49826;SDS011;35715;51.570;6.036;2023-11-21T06:20:19;27.90;;;17.75;;
49826;SDS011;35715;51.570;6.036;2023-11-21T06:22:47;20.40;;;17.35;;
49826;SDS011;35715;51.570;6.036;2023-11-21T06:25:15;20.77;;;17.63;;
49826;SDS011;35715;51.570;6.036;2023-11-21T06:27:44;23.83;;;19.40;;
49826;SDS011;35715;51.570;6.036;2023-11-21T06:30:11;27.98;;;21.58;;
49826;SDS011;35715;51.570;6.036;2023-11-21T06:32:38;28.80;;;21.42;;
49826;SDS011;35715;51.570;6.036;2023-11-21T06:35:07;22.25;;;17.55;;
49826;SDS011;35715;51.570;6.036;2023-11-21T06:37:36;20.42;;;17.20;;
49826;SDS011;35715;51.570;6.036;2023-11-21T06:40:01;20.05;;;17.42;;
49826;SDS011;35715;51.570;6.036;2023-11-21T06:42:28;24.65;;;19.40;;
49826;SDS011;35715;51.570;6.036;2023-11-21T06:44:54;22.83;;;18.42;;
49826;SDS011;35715;51.570;6.036;2023-11-21T06:47:22;27.33;;;18.27;;
49826;SDS011;35715;51.570;6.036;2023-11-21T06:49:50;23.45;;;18.73;;
49826;SDS011;35715;51.570;6.036;2023-11-21T06:52:16;22.85;;;16.63;;
49826;SDS011;35715;51.570;6.036;2023-11-21T06:54:43;22.88;;;17.90;;
49826;SDS011;35715;51.570;6.036;2023-11-21T06:57:08;21.10;;;17.65;;
49826;SDS011;35715;51.570;6.036;2023-11-21T06:59:34;23.50;;;18.52;;
49826;SDS011;35715;51.570;6.036;2023-11-21T07:01:59;24.95;;;19.52;;
49826;SDS011;35715;51.570;6.036;2023-11-21T07:04:30;26.40;;;19.45;;
49826;SDS011;35715;51.570;6.036;2023-11-21T07:06:55;23.75;;;17.75;;
49826;SDS011;35715;51.570;6.036;2023-11-21T07:09:21;27.92;;;19.85;;
49826;SDS011;35715;51.570;6.036;2023-11-21T07:11:50;25.30;;;19.33;;
49826;SDS011;35715;51.570;6.036;2023-11-21T07:14:19;27.45;;;19.40;;
49826;SDS011;35715;51.570;6.036;2023-11-21T07:16:44;25.85;;;19.15;;
49826;SDS011;35715;51.570;6.036;2023-11-21T07:19:10;25.88;;;18.55;;
49826;SDS011;35715;51.570;6.036;2023-11-21T07:21:37;28.20;;;19.95;;
49826;SDS011;35715;51.570;6.036;2023-11-21T07:24:03;23.52;;;17.77;;
49826;SDS011;35715;51.570;6.036;2023-11-21T07:26:29;24.95;;;18.90;;
49826;SDS011;35715;51.570;6.036;2023-11-21T07:28:55;26.33;;;18.55;;
49826;SDS011;35715;51.570;6.036;2023-11-21T07:31:21;24.38;;;18.25;;
49826;SDS011;35715;51.570;6.036;2023-11-21T07:33:47;21.83;;;18.38;;
49826;SDS011;35715;51.570;6.036;2023-11-21T07:36:13;30.08;;;16.92;;
49826;SDS011;35715;51.570;6.036;2023-11-21T07:38:41;18.23;;;15.15;;
49826;SDS011;35715;51.570;6.036;2023-11-21T07:41:07;20.00;;;17.92;;
49826;SDS011;35715;51.570;6.036;2023-11-21T07:43:34;21.02;;;16.30;;
49826;SDS011;35715;51.570;6.036;2023-11-21T07:46:03;19.13;;;15.70;;
49826;SDS011;35715;51.570;6.036;2023-11-21T07:48:29;19.15;;;15.75;;
49826;SDS011;35715;51.570;6.036;2023-11-21T07:51:02;19.40;;;16.50;;
49826;SDS011;35715;51.570;6.036;2023-11-21T07:53:30;17.80;;;15.90;;
49826;SDS011;35715;51.570;6.036;2023-11-21T07:55:56;20.98;;;16.55;;
49826;SDS011;35715;51.570;6.036;2023-11-21T07:58:22;18.55;;;16.50;;
49826;SDS011;35715;51.570;6.036;2023-11-21T08:00:48;18.98;;;15.82;;
49826;SDS011;35715;51.570;6.036;2023-11-21T08:03:14;18.65;;;15.93;;
49826;SDS011;35715;51.570;6.036;2023-11-21T08:05:43;20.02;;;14.95;;
49826;SDS011;35715;51.570;6.036;2023-11-21T08:08:08;17.95;;;15.25;;
49826;SDS011;35715;51.570;6.036;2023-11-21T08:10:34;21.77;;;17.48;;
49826;SDS011;35715;51.570;6.036;2023-11-21T08:13:00;20.58;;;17.92;;
49826;SDS011;35715;51.570;6.036;2023-11-21T08:15:26;19.85;;;17.02;;
49826;SDS011;35715;51.570;6.036;2023-11-21T08:17:51;22.10;;;15.93;;
49826;SDS011;35715;51.570;6.036;2023-11-21T08:20:17;16.95;;;14.90;;
49826;SDS011;35715;51.570;6.036;2023-11-21T08:22:43;18.50;;;15.98;;
49826;SDS011;35715;51.570;6.036;2023-11-21T08:25:09;16.60;;;14.90;;
49826;SDS011;35715;51.570;6.036;2023-11-21T08:27:35;22.80;;;16.77;;
49826;SDS011;35715;51.570;6.036;2023-11-21T08:30:00;26.75;;;17.38;;
49826;SDS011;35715;51.570;6.036;2023-11-21T08:32:28;19.65;;;15.57;;
49826;SDS011;35715;51.570;6.036;2023-11-21T08:34:55;17.00;;;14.70;;
49826;SDS011;35715;51.570;6.036;2023-11-21T08:37:20;15.45;;;13.80;;
49826;SDS011;35715;51.570;6.036;2023-11-21T08:39:46;18.83;;;13.63;;
49826;SDS011;35715;51.570;6.036;2023-11-21T08:42:15;16.25;;;14.15;;
49826;SDS011;35715;51.570;6.036;2023-11-21T08:44:41;15.73;;;12.93;;
49826;SDS011;35715;51.570;6.036;2023-11-21T08:47:06;14.18;;;12.73;;
49826;SDS011;35715;51.570;6.036;2023-11-21T08:49:32;13.82;;;12.32;;
49826;SDS011;35715;51.570;6.036;2023-11-21T08:51:57;10.55;;;9.55;;
49826;SDS011;35715;51.570;6.036;2023-11-21T08:54:24;12.35;;;11.27;;
49826;SDS011;35715;51.570;6.036;2023-11-21T08:56:50;13.20;;;11.93;;
49826;SDS011;35715;51.570;6.036;2023-11-21T08:59:16;12.80;;;11.30;;
49826;SDS011;35715;51.570;6.036;2023-11-21T09:01:42;12.13;;;10.75;;
49826;SDS011;35715;51.570;6.036;2023-11-21T09:04:07;12.75;;;11.52;;
49826;SDS011;35715;51.570;6.036;2023-11-21T09:06:33;13.27;;;11.60;;
49826;SDS011;35715;51.570;6.036;2023-11-21T09:08:58;14.00;;;12.10;;
49826;SDS011;35715;51.570;6.036;2023-11-21T09:11:23;12.65;;;10.98;;
49826;SDS011;35715;51.570;6.036;2023-11-21T09:13:50;12.98;;;11.65;;
49826;SDS011;35715;51.570;6.036;2023-11-21T09:16:16;13.82;;;12.35;;
49826;SDS011;35715;51.570;6.036;2023-11-21T09:18:42;13.98;;;12.50;;
49826;SDS011;35715;51.570;6.036;2023-11-21T09:21:07;17.20;;;12.90;;
49826;SDS011;35715;51.570;6.036;2023-11-21T09:23:33;14.30;;;11.77;;
49826;SDS011;35715;51.570;6.036;2023-11-21T09:25:59;14.90;;;12.55;;
49826;SDS011;35715;51.570;6.036;2023-11-21T09:28:25;15.00;;;13.18;;
49826;SDS011;35715;51.570;6.036;2023-11-21T09:30:53;15.35;;;11.93;;
49826;SDS011;35715;51.570;6.036;2023-11-21T09:33:19;16.75;;;12.68;;
49826;SDS011;35715;51.570;6.036;2023-11-21T09:35:45;12.63;;;11.10;;
49826;SDS011;35715;51.570;6.036;2023-11-21T09:38:11;15.48;;;11.55;;
49826;SDS011;35715;51.570;6.036;2023-11-21T09:40:36;15.60;;;12.52;;
49826;SDS011;35715;51.570;6.036;2023-11-21T09:43:06;16.30;;;12.60;;
49826;SDS011;35715;51.570;6.036;2023-11-21T09:45:41;16.17;;;11.43;;
49826;SDS011;35715;51.570;6.036;2023-11-21T09:48:10;12.85;;;11.65;;
49826;SDS011;35715;51.570;6.036;2023-11-21T09:50:36;14.65;;;12.25;;
49826;SDS011;35715;51.570;6.036;2023-11-21T09:53:18;13.23;;;11.93;;
49826;SDS011;35715;51.570;6.036;2023-11-21T09:55:50;15.15;;;13.52;;
49826;SDS011;35715;51.570;6.036;2023-11-21T09:58:17;12.68;;;11.45;;
49826;SDS011;35715;51.570;6.036;2023-11-21T10:00:44;14.93;;;11.68;;
49826;SDS011;35715;51.570;6.036;2023-11-21T10:03:14;12.30;;;10.52;;
49826;SDS011;35715;51.570;6.036;2023-11-21T10:05:41;14.23;;;11.65;;
49826;SDS011;35715;51.570;6.036;2023-11-21T10:08:09;15.45;;;13.70;;
49826;SDS011;35715;51.570;6.036;2023-11-21T10:10:36;12.60;;;11.27;;
49826;SDS011;35715;51.570;6.036;2023-11-21T10:13:05;17.15;;;14.38;;
49826;SDS011;35715;51.570;6.036;2023-11-21T10:15:38;18.50;;;14.10;;
49826;SDS011;35715;51.570;6.036;2023-11-21T10:18:09;15.32;;;13.73;;
49826;SDS011;35715;51.570;6.036;2023-11-21T10:20:34;18.08;;;13.43;;
49826;SDS011;35715;51.570;6.036;2023-11-21T10:23:02;14.40;;;12.10;;
49826;SDS011;35715;51.570;6.036;2023-11-21T10:25:28;14.15;;;12.75;;
49826;SDS011;35715;51.570;6.036;2023-11-21T10:27:58;14.23;;;12.73;;
49826;SDS011;35715;51.570;6.036;2023-11-21T10:30:33;14.85;;;13.27;;
49826;SDS011;35715;51.570;6.036;2023-11-21T10:33:03;19.38;;;15.05;;
49826;SDS011;35715;51.570;6.036;2023-11-21T10:38:26;18.80;;;15.48;;
49826;SDS011;35715;51.570;6.036;2023-11-21T10:40:53;18.95;;;15.07;;
49826;SDS011;35715;51.570;6.036;2023-11-21T10:43:19;17.20;;;15.40;;
49826;SDS011;35715;51.570;6.036;2023-11-21T10:45:49;19.33;;;17.20;;
49826;SDS011;35715;51.570;6.036;2023-11-21T10:48:14;21.73;;;17.25;;
49826;SDS011;35715;51.570;6.036;2023-11-21T10:50:41;16.20;;;14.35;;
49826;SDS011;35715;51.570;6.036;2023-11-21T10:53:10;16.70;;;14.23;;
49826;SDS011;35715;51.570;6.036;2023-11-21T10:55:37;17.70;;;14.77;;
49826;SDS011;35715;51.570;6.036;2023-11-21T10:58:03;17.70;;;15.13;;
49826;SDS011;35715;51.570;6.036;2023-11-21T11:00:30;16.42;;;13.13;;
49826;SDS011;35715;51.570;6.036;2023-11-21T11:02:56;20.40;;;13.55;;
49826;SDS011;35715;51.570;6.036;2023-11-21T11:05:24;16.77;;;12.75;;
49826;SDS011;35715;51.570;6.036;2023-11-21T11:08:06;13.38;;;11.52;;
49826;SDS011;35715;51.570;6.036;2023-11-21T11:10:43;11.55;;;10.32;;
49826;SDS011;35715;51.570;6.036;2023-11-21T11:13:11;14.05;;;10.38;;
49826;SDS011;35715;51.570;6.036;2023-11-21T11:15:40;12.50;;;10.27;;
49826;SDS011;35715;51.570;6.036;2023-11-21T11:18:05;11.75;;;9.90;;
49826;SDS011;35715;51.570;6.036;2023-11-21T11:20:36;12.55;;;11.27;;
49826;SDS011;35715;51.570;6.036;2023-11-21T11:28:52;12.32;;;9.30;;
49826;SDS011;35715;51.570;6.036;2023-11-21T11:31:55;13.15;;;10.75;;
49826;SDS011;35715;51.570;6.036;2023-11-21T11:34:35;12.90;;;10.88;;
49826;SDS011;35715;51.570;6.036;2023-11-21T11:37:04;13.20;;;11.50;;
49826;SDS011;35715;51.570;6.036;2023-11-21T11:42:02;16.88;;;12.20;;
49826;SDS011;35715;51.570;6.036;2023-11-21T11:44:46;15.52;;;12.77;;
49826;SDS011;35715;51.570;6.036;2023-11-21T11:47:35;15.90;;;11.50;;
49826;SDS011;35715;51.570;6.036;2023-11-21T11:52:48;17.35;;;13.35;;
49826;SDS011;35715;51.570;6.036;2023-11-21T11:55:16;21.95;;;14.30;;
49826;SDS011;35715;51.570;6.036;2023-11-21T11:57:47;17.90;;;12.48;;
49826;SDS011;35715;51.570;6.036;2023-11-21T12:00:17;15.50;;;12.38;;
49826;SDS011;35715;51.570;6.036;2023-11-21T12:02:52;16.67;;;13.32;;
49826;SDS011;35715;51.570;6.036;2023-11-21T12:05:19;17.75;;;13.90;;
49826;SDS011;35715;51.570;6.036;2023-11-21T12:07:47;19.05;;;13.80;;
49826;SDS011;35715;51.570;6.036;2023-11-21T12:10:16;20.90;;;14.55;;
49826;SDS011;35715;51.570;6.036;2023-11-21T12:12:44;14.70;;;12.73;;
49826;SDS011;35715;51.570;6.036;2023-11-21T12:15:11;20.50;;;13.57;;
49826;SDS011;35715;51.570;6.036;2023-11-21T12:17:38;16.83;;;13.70;;
49826;SDS011;35715;51.570;6.036;2023-11-21T12:20:04;18.90;;;14.43;;
49826;SDS011;35715;51.570;6.036;2023-11-21T12:22:31;16.50;;;14.00;;
49826;SDS011;35715;51.570;6.036;2023-11-21T12:24:57;17.17;;;13.82;;
49826;SDS011;35715;51.570;6.036;2023-11-21T12:27:22;23.23;;;15.98;;
49826;SDS011;35715;51.570;6.036;2023-11-21T12:29:48;20.08;;;15.07;;
49826;SDS011;35715;51.570;6.036;2023-11-21T12:32:13;19.20;;;15.32;;
49826;SDS011;35715;51.570;6.036;2023-11-21T12:34:41;19.83;;;15.65;;
49826;SDS011;35715;51.570;6.036;2023-11-21T12:37:06;20.27;;;15.70;;
49826;SDS011;35715;51.570;6.036;2023-11-21T12:39:32;20.45;;;15.57;;
49826;SDS011;35715;51.570;6.036;2023-11-21T12:41:57;23.17;;;15.40;;
49826;SDS011;35715;51.570;6.036;2023-11-21T12:44:23;24.73;;;15.45;;
49826;SDS011;35715;51.570;6.036;2023-11-21T12:46:49;18.77;;;14.95;;
49826;SDS011;35715;51.570;6.036;2023-11-21T12:49:15;19.33;;;15.52;;
49826;SDS011;35715;51.570;6.036;2023-11-21T12:51:44;18.80;;;16.13;;
49826;SDS011;35715;51.570;6.036;2023-11-21T12:54:11;16.75;;;14.27;;
49826;SDS011;35715;51.570;6.036;2023-11-21T12:56:44;18.65;;;13.77;;
49826;SDS011;35715;51.570;6.036;2023-11-21T12:59:12;21.02;;;15.75;;
49826;SDS011;35715;51.570;6.036;2023-11-21T13:01:43;20.25;;;15.10;;
49826;SDS011;35715;51.570;6.036;2023-11-21T13:04:10;20.10;;;14.80;;
49826;SDS011;35715;51.570;6.036;2023-11-21T13:06:36;22.38;;;16.13;;
49826;SDS011;35715;51.570;6.036;2023-11-21T13:09:06;22.75;;;17.77;;
49826;SDS011;35715;51.570;6.036;2023-11-21T13:11:35;21.58;;;16.90;;
49826;SDS011;35715;51.570;6.036;2023-11-21T13:14:02;28.25;;;17.05;;
49826;SDS011;35715;51.570;6.036;2023-11-21T13:16:28;21.52;;;17.00;;
49826;SDS011;35715;51.570;6.036;2023-11-21T13:18:55;29.52;;;18.77;;
49826;SDS011;35715;51.570;6.036;2023-11-21T13:21:20;30.70;;;20.30;;
49826;SDS011;35715;51.570;6.036;2023-11-21T13:23:47;27.83;;;18.48;;
49826;SDS011;35715;51.570;6.036;2023-11-21T13:26:17;32.38;;;19.98;;
49826;SDS011;35715;51.570;6.036;2023-11-21T13:28:45;34.90;;;22.25;;
49826;SDS011;35715;51.570;6.036;2023-11-21T13:31:13;31.35;;;21.95;;
49826;SDS011;35715;51.570;6.036;2023-11-21T13:33:52;33.33;;;21.77;;
49826;SDS011;35715;51.570;6.036;2023-11-21T13:36:23;31.10;;;21.33;;
49826;SDS011;35715;51.570;6.036;2023-11-21T13:38:50;34.15;;;23.20;;
49826;SDS011;35715;51.570;6.036;2023-11-21T13:41:17;33.33;;;20.25;;
49826;SDS011;35715;51.570;6.036;2023-11-21T13:43:43;31.50;;;18.88;;
49826;SDS011;35715;51.570;6.036;2023-11-21T13:46:14;28.33;;;19.10;;
49826;SDS011;35715;51.570;6.036;2023-11-21T13:48:42;24.77;;;17.33;;
49826;SDS011;35715;51.570;6.036;2023-11-21T13:51:10;22.73;;;15.90;;
49826;SDS011;35715;51.570;6.036;2023-11-21T13:53:43;23.60;;;14.93;;
49826;SDS011;35715;51.570;6.036;2023-11-21T13:56:10;25.73;;;15.75;;
49826;SDS011;35715;51.570;6.036;2023-11-21T13:58:36;24.88;;;17.48;;
49826;SDS011;35715;51.570;6.036;2023-11-21T14:01:15;24.65;;;17.83;;
49826;SDS011;35715;51.570;6.036;2023-11-21T14:04:04;21.23;;;16.58;;
49826;SDS011;35715;51.570;6.036;2023-11-21T14:06:47;21.60;;;15.20;;
49826;SDS011;35715;51.570;6.036;2023-11-21T14:09:21;19.70;;;14.27;;
49826;SDS011;35715;51.570;6.036;2023-11-21T14:11:49;20.10;;;13.80;;
49826;SDS011;35715;51.570;6.036;2023-11-21T14:14:22;18.98;;;14.68;;
49826;SDS011;35715;51.570;6.036;2023-11-21T14:16:53;17.27;;;12.80;;
49826;SDS011;35715;51.570;6.036;2023-11-21T14:19:22;18.27;;;12.20;;
49826;SDS011;35715;51.570;6.036;2023-11-21T14:21:52;15.85;;;10.82;;
49826;SDS011;35715;51.570;6.036;2023-11-21T14:24:17;16.13;;;11.90;;
49826;SDS011;35715;51.570;6.036;2023-11-21T14:26:43;17.55;;;11.10;;
49826;SDS011;35715;51.570;6.036;2023-11-21T14:29:13;16.40;;;12.40;;
49826;SDS011;35715;51.570;6.036;2023-11-21T14:31:41;18.75;;;14.65;;
49826;SDS011;35715;51.570;6.036;2023-11-21T14:34:07;18.95;;;14.60;;
49826;SDS011;35715;51.570;6.036;2023-11-21T14:36:36;21.00;;;14.48;;